createdAt,value
2023-01-07T00:00:10.898Z,7.73
2023-01-07T00:01:14.931Z,7.70
2023-01-07T00:01:48.135Z,7.69
2023-01-07T00:02:21.482Z,7.64
2023-01-07T00:02:54.978Z,7.64
2023-01-07T00:03:29.320Z,7.65
2023-01-07T00:04:05.310Z,7.67
2023-01-07T00:04:38.663Z,7.69
2023-01-07T00:05:11.991Z,7.70
2023-01-07T00:05:45.802Z,7.69
2023-01-07T00:06:24.914Z,7.62
2023-01-07T00:06:59.723Z,7.60
2023-01-07T00:07:33.251Z,7.56
2023-01-07T00:08:06.825Z,7.57
2023-01-07T00:08:42.533Z,7.55
2023-01-07T00:09:18.987Z,7.57
2023-01-07T00:09:52.340Z,7.61
2023-01-07T00:10:25.738Z,7.63
2023-01-07T00:11:04.068Z,7.64
2023-01-07T00:11:39.730Z,7.63
2023-01-07T00:12:13.093Z,7.61
2023-01-07T00:12:46.410Z,7.60
2023-01-07T00:13:19.918Z,7.62
2023-01-07T00:13:55.022Z,7.59
2023-01-07T00:14:28.388Z,7.58
2023-01-07T00:15:01.793Z,7.59
2023-01-07T00:15:35.226Z,7.58
2023-01-07T00:16:15.866Z,7.58
2023-01-07T00:16:49.421Z,7.57
2023-01-07T00:17:23.938Z,7.56
2023-01-07T00:17:57.345Z,7.56
2023-01-07T00:18:31.077Z,7.58
2023-01-07T00:19:07.020Z,7.58
2023-01-07T00:19:43.523Z,7.57
2023-01-07T00:20:17.084Z,7.56
2023-01-07T00:20:50.953Z,7.57
2023-01-07T00:21:26.195Z,7.58
2023-01-07T00:21:59.626Z,7.58
2023-01-07T00:22:32.935Z,7.64
2023-01-07T00:23:06.272Z,7.62
2023-01-07T00:23:41.405Z,7.61
2023-01-07T00:24:18.383Z,7.57
2023-01-07T00:24:51.934Z,7.55
2023-01-07T00:25:25.397Z,7.53
2023-01-07T00:26:08.542Z,7.54
2023-01-07T00:26:41.955Z,7.56
2023-01-07T00:27:15.358Z,7.56
2023-01-07T00:27:48.835Z,7.55
2023-01-07T00:28:22.187Z,7.55
2023-01-07T00:28:55.812Z,7.56
2023-01-07T00:29:29.167Z,7.57
2023-01-07T00:30:02.549Z,7.57
2023-01-07T00:30:36.140Z,7.57
2023-01-07T00:31:13.178Z,7.56
2023-01-07T00:31:47.326Z,7.58
2023-01-07T00:32:21.200Z,7.57
2023-01-07T00:33:04.934Z,7.58
2023-01-07T00:33:49.767Z,7.58
2023-01-07T00:34:23.776Z,7.57
2023-01-07T00:34:57.133Z,7.57
2023-01-07T00:35:32.162Z,7.57
2023-01-07T00:36:11.042Z,7.58
2023-01-07T00:36:46.470Z,7.57
2023-01-07T00:37:38.354Z,7.57
2023-01-07T00:38:12.188Z,7.57
2023-01-07T00:38:45.710Z,7.53
2023-01-07T00:39:21.366Z,7.56
2023-01-07T00:39:55.033Z,7.56
2023-01-07T00:40:31.258Z,7.56
2023-01-07T00:41:06.145Z,7.56
2023-01-07T00:41:40.031Z,7.56
2023-01-07T00:42:32.471Z,7.57
2023-01-07T00:43:06.991Z,7.50
2023-01-07T00:43:40.414Z,7.56
2023-01-07T00:44:13.846Z,7.57
2023-01-07T00:44:47.199Z,7.57
2023-01-07T00:45:22.299Z,7.57
2023-01-07T00:45:56.070Z,7.57
2023-01-07T00:46:30.242Z,7.56
2023-01-07T00:47:03.656Z,7.58
2023-01-07T00:47:37.177Z,7.59
2023-01-07T00:48:10.697Z,7.60
2023-01-07T00:48:45.175Z,7.60
2023-01-07T00:49:18.787Z,7.61
2023-01-07T00:49:52.235Z,7.61
2023-01-07T00:50:28.887Z,7.62
2023-01-07T00:51:02.339Z,7.61
2023-01-07T00:51:35.711Z,7.61
2023-01-07T00:52:09.115Z,7.61
2023-01-07T00:52:42.498Z,7.60
2023-01-07T00:53:16.017Z,7.63
2023-01-07T00:53:49.571Z,7.64
2023-01-07T00:54:24.230Z,7.63
2023-01-07T00:54:59.297Z,7.63
2023-01-07T00:55:33.318Z,7.62
2023-01-07T00:56:07.704Z,7.63
2023-01-07T00:56:41.786Z,7.63
2023-01-07T00:57:15.308Z,7.63
2023-01-07T00:57:49.113Z,7.63
2023-01-07T00:58:25.196Z,7.63
2023-01-07T00:58:58.725Z,7.63
2023-01-07T00:59:32.322Z,7.58
2023-01-07T01:00:06.302Z,7.66
2023-01-07T01:00:39.957Z,7.66
2023-01-07T01:01:14.019Z,7.65
2023-01-07T01:01:47.753Z,7.65
2023-01-07T01:02:21.602Z,7.64
2023-01-07T01:02:55.305Z,7.64
2023-01-07T01:03:31.674Z,7.63
2023-01-07T01:04:06.526Z,7.62
2023-01-07T01:04:39.912Z,7.63
2023-01-07T01:05:17.769Z,7.62
2023-01-07T01:05:54.977Z,7.62
2023-01-07T01:06:28.426Z,7.61
2023-01-07T01:07:01.803Z,7.55
2023-01-07T01:07:37.047Z,7.61
2023-01-07T01:08:10.961Z,7.61
2023-01-07T01:08:47.589Z,7.61
2023-01-07T01:09:22.556Z,7.60
2023-01-07T01:09:56.039Z,7.60
2023-01-07T01:10:29.527Z,7.60
2023-01-07T01:11:07.808Z,7.61
2023-01-07T01:11:42.086Z,7.61
2023-01-07T01:12:17.206Z,7.59
2023-01-07T01:12:52.340Z,7.61
2023-01-07T01:13:25.789Z,7.62
2023-01-07T01:13:59.186Z,7.62
2023-01-07T01:14:32.588Z,7.62
2023-01-07T01:15:09.655Z,7.64
2023-01-07T01:15:48.199Z,7.63
2023-01-07T01:16:21.646Z,7.64
2023-01-07T01:16:55.377Z,7.63
2023-01-07T01:17:29.427Z,7.62
2023-01-07T01:18:02.861Z,7.61
2023-01-07T01:18:37.039Z,7.60
2023-01-07T01:19:10.381Z,7.62
2023-01-07T01:19:43.760Z,7.61
2023-01-07T01:20:17.923Z,7.62
2023-01-07T01:20:51.361Z,7.61
2023-01-07T01:21:24.796Z,7.62
2023-01-07T01:21:58.165Z,7.62
2023-01-07T01:22:31.650Z,7.63
2023-01-07T01:23:06.020Z,7.64
2023-01-07T01:23:40.090Z,7.64
2023-01-07T01:24:13.803Z,7.64
2023-01-07T01:24:47.258Z,7.64
2023-01-07T01:25:20.942Z,7.62
2023-01-07T01:26:02.664Z,7.63
2023-01-07T01:26:36.692Z,7.61
2023-01-07T01:27:10.291Z,7.61
2023-01-07T01:27:44.274Z,7.60
2023-01-07T01:28:17.650Z,7.59
2023-01-07T01:28:51.226Z,7.59
2023-01-07T01:29:26.706Z,7.61
2023-01-07T01:30:00.419Z,7.61
2023-01-07T01:30:34.676Z,7.61
2023-01-07T01:31:09.566Z,7.60
2023-01-07T01:31:50.502Z,7.61
2023-01-07T01:32:24.349Z,7.60
2023-01-07T01:32:57.855Z,7.60
2023-01-07T01:33:31.425Z,7.60
2023-01-07T01:34:04.898Z,7.59
2023-01-07T01:34:38.529Z,7.58
2023-01-07T01:35:11.940Z,7.59
2023-01-07T01:35:45.385Z,7.59
2023-01-07T01:36:18.833Z,7.60
2023-01-07T01:36:52.350Z,7.59
2023-01-07T01:37:26.165Z,7.59
2023-01-07T01:38:01.434Z,7.60
2023-01-07T01:38:35.989Z,7.60
2023-01-07T01:39:09.338Z,7.60
2023-01-07T01:39:42.789Z,7.59
2023-01-07T01:40:16.464Z,7.59
2023-01-07T01:40:49.914Z,7.60
2023-01-07T01:41:23.878Z,7.59
2023-01-07T01:41:58.089Z,7.59
2023-01-07T01:42:32.094Z,7.60
2023-01-07T01:43:05.667Z,7.59
2023-01-07T01:43:41.423Z,7.59
2023-01-07T01:44:46.064Z,7.58
2023-01-07T01:45:22.993Z,7.53
2023-01-07T01:45:57.473Z,7.52
2023-01-07T01:46:35.177Z,7.53
2023-01-07T01:47:18.127Z,7.53
2023-01-07T01:48:03.662Z,7.51
2023-01-07T01:48:40.162Z,7.48
2023-01-07T01:49:33.385Z,7.50
2023-01-07T01:50:15.840Z,7.48
2023-01-07T01:50:52.107Z,7.46
2023-01-07T01:51:28.889Z,7.47
2023-01-07T01:52:09.123Z,7.47
2023-01-07T01:52:47.256Z,7.47
2023-01-07T01:53:28.817Z,7.46
2023-01-07T01:54:05.444Z,7.45
2023-01-07T01:54:42.320Z,7.45
2023-01-07T01:55:19.605Z,7.45
2023-01-07T01:56:00.836Z,7.45
2023-01-07T01:56:41.307Z,7.45
2023-01-07T01:57:17.739Z,7.45
2023-01-07T01:57:56.676Z,7.45
2023-01-07T01:58:35.008Z,7.45
2023-01-07T01:59:15.212Z,7.45
2023-01-07T01:59:52.329Z,7.46
2023-01-07T02:00:26.906Z,7.45
2023-01-07T02:01:00.810Z,7.45
2023-01-07T02:01:35.985Z,7.47
2023-01-07T02:02:14.559Z,7.47
2023-01-07T02:02:52.971Z,7.48
2023-01-07T02:03:30.077Z,7.48
2023-01-07T02:04:14.055Z,7.47
2023-01-07T02:04:47.600Z,7.45
2023-01-07T02:05:21.738Z,7.45
2023-01-07T02:05:55.442Z,7.45
2023-01-07T02:06:33.772Z,7.45
2023-01-07T02:07:16.982Z,7.44
2023-01-07T02:07:53.890Z,7.41
2023-01-07T02:08:28.091Z,7.40
2023-01-07T02:09:02.504Z,7.36
2023-01-07T02:09:36.206Z,7.44
2023-01-07T02:10:22.144Z,7.44
2023-01-07T02:11:40.462Z,7.41
2023-01-07T02:12:28.369Z,7.37
2023-01-07T02:13:31.465Z,7.41
2023-01-07T02:14:07.681Z,7.39
2023-01-07T02:15:09.940Z,7.39
2023-01-07T02:15:49.299Z,7.33
2023-01-07T02:16:38.294Z,7.31
2023-01-07T02:17:20.337Z,7.29
2023-01-07T02:18:12.529Z,7.29
2023-01-07T02:18:52.015Z,7.29
2023-01-07T02:19:46.747Z,7.28
2023-01-07T02:20:23.199Z,7.26
2023-01-07T02:21:14.885Z,7.26
2023-01-07T02:22:04.697Z,7.26
2023-01-07T02:23:15.803Z,7.25
2023-01-07T02:24:05.355Z,7.23
2023-01-07T02:24:54.778Z,7.23
2023-01-07T02:25:46.544Z,7.24
2023-01-07T02:26:35.075Z,7.22
2023-01-07T02:27:21.867Z,7.21
2023-01-07T02:28:08.010Z,7.21
2023-01-07T02:28:53.031Z,7.20
2023-01-07T02:30:03.538Z,7.20
2023-01-07T02:30:56.035Z,7.18
2023-01-07T02:31:51.359Z,7.19
2023-01-07T02:32:46.659Z,7.19
2023-01-07T02:33:48.510Z,7.18
2023-01-07T02:34:48.228Z,7.18
2023-01-07T02:35:32.029Z,7.18
2023-01-07T02:36:26.452Z,7.16
2023-01-07T02:37:49.010Z,7.14
2023-01-07T02:38:37.669Z,7.11
2023-01-07T02:39:37.664Z,7.10
2023-01-07T02:40:22.103Z,7.06
2023-01-07T02:41:04.415Z,7.07
2023-01-07T02:41:56.688Z,7.07
2023-01-07T02:42:41.244Z,7.09
2023-01-07T02:43:17.509Z,7.10
2023-01-07T02:44:04.502Z,7.11
2023-01-07T02:44:59.754Z,7.12
2023-01-07T02:46:13.811Z,7.10
2023-01-07T02:47:11.248Z,7.07
2023-01-07T02:47:52.308Z,7.06
2023-01-07T02:48:26.025Z,7.08
2023-01-07T02:50:47.433Z,7.06
2023-01-07T02:51:20.906Z,7.02
2023-01-07T02:51:54.310Z,7.02
2023-01-07T02:52:31.354Z,7.02
2023-01-07T02:53:07.047Z,7.01
2023-01-07T02:53:46.492Z,7.02
2023-01-07T02:54:28.413Z,7.02
2023-01-07T02:55:25.020Z,7.02
2023-01-07T02:56:07.497Z,7.03
2023-01-07T02:56:59.781Z,7.03
2023-01-07T02:57:48.310Z,6.99
2023-01-07T02:58:29.216Z,6.97
2023-01-07T02:59:11.998Z,6.95
2023-01-07T03:00:07.696Z,6.95
2023-01-07T03:00:56.190Z,6.95
2023-01-07T03:01:53.046Z,6.95
2023-01-07T03:02:48.536Z,6.96
2023-01-07T03:03:49.304Z,6.95
2023-01-07T03:04:34.847Z,6.92
2023-01-07T03:05:19.697Z,6.92
2023-01-07T03:06:06.147Z,6.92
2023-01-07T03:06:57.830Z,6.93
2023-01-07T03:07:48.126Z,6.93
2023-01-07T03:08:36.795Z,6.93
2023-01-07T03:09:28.273Z,6.95
2023-01-07T03:10:06.077Z,6.96
2023-01-07T03:10:55.687Z,6.96
2023-01-07T03:11:39.539Z,6.97
2023-01-07T03:12:26.570Z,6.98
2023-01-07T03:13:07.511Z,6.99
2023-01-07T03:14:11.483Z,6.99
2023-01-07T03:15:11.721Z,6.99
2023-01-07T03:16:05.873Z,6.99
2023-01-07T03:16:43.259Z,7.01
2023-01-07T03:17:24.832Z,7.02
2023-01-07T03:18:33.147Z,7.04
2023-01-07T03:19:18.508Z,7.03
2023-01-07T03:19:57.852Z,7.04
2023-01-07T03:20:34.737Z,7.05
2023-01-07T03:21:13.477Z,7.07
2023-01-07T03:21:49.031Z,7.09
2023-01-07T03:22:26.153Z,7.09
2023-01-07T03:22:59.639Z,7.11
2023-01-07T03:23:36.493Z,7.11
2023-01-07T03:24:10.030Z,7.12
2023-01-07T03:24:44.822Z,7.13
2023-01-07T03:25:21.019Z,7.16
2023-01-07T03:26:02.171Z,7.17
2023-01-07T03:26:38.191Z,7.17
2023-01-07T03:27:12.272Z,7.15
2023-01-07T03:27:47.789Z,7.15
2023-01-07T03:28:26.048Z,7.17
2023-01-07T03:29:02.081Z,7.20
2023-01-07T03:29:38.624Z,7.21
2023-01-07T03:30:14.880Z,7.20
2023-01-07T03:30:51.414Z,7.21
2023-01-07T03:31:26.402Z,7.22
2023-01-07T03:32:09.657Z,7.24
2023-01-07T03:32:49.181Z,7.22
2023-01-07T03:33:33.426Z,7.24
2023-01-07T03:34:10.540Z,7.21
2023-01-07T03:34:45.003Z,7.19
2023-01-07T03:35:21.255Z,7.19
2023-01-07T03:35:58.930Z,7.21
2023-01-07T03:36:44.880Z,7.21
2023-01-07T03:37:22.567Z,7.20
2023-01-07T03:37:57.820Z,7.19
2023-01-07T03:38:31.563Z,7.20
2023-01-07T03:39:08.199Z,7.20
2023-01-07T03:39:44.753Z,7.23
2023-01-07T03:40:19.178Z,7.24
2023-01-07T03:40:53.264Z,7.23
2023-01-07T03:41:46.298Z,7.23
2023-01-07T03:42:41.623Z,7.21
2023-01-07T03:43:23.702Z,7.19
2023-01-07T03:43:57.112Z,7.19
2023-01-07T03:44:31.119Z,7.20
2023-01-07T03:45:05.045Z,7.21
2023-01-07T03:45:38.808Z,7.22
2023-01-07T03:46:12.841Z,7.22
2023-01-07T03:46:46.346Z,7.24
2023-01-07T03:47:21.553Z,7.25
2023-01-07T03:47:56.897Z,7.26
2023-01-07T03:48:33.265Z,7.25
2023-01-07T03:49:06.794Z,7.24
2023-01-07T03:49:41.802Z,7.25
2023-01-07T03:50:17.274Z,7.28
2023-01-07T03:50:51.132Z,7.28
2023-01-07T03:51:24.631Z,7.30
2023-01-07T03:51:58.867Z,7.32
2023-01-07T03:52:32.463Z,7.33
2023-01-07T03:53:06.051Z,7.33
2023-01-07T03:53:40.955Z,7.34
2023-01-07T03:54:14.926Z,7.32
2023-01-07T03:54:48.545Z,7.33
2023-01-07T03:55:22.177Z,7.33
2023-01-07T03:55:55.964Z,7.33
2023-01-07T03:56:29.416Z,7.34
2023-01-07T03:57:03.616Z,7.33
2023-01-07T03:57:37.536Z,7.34
2023-01-07T03:58:12.871Z,7.35
2023-01-07T03:58:46.330Z,7.34
2023-01-07T03:59:20.041Z,7.32
2023-01-07T03:59:53.945Z,7.32
2023-01-07T04:00:27.675Z,7.31
2023-01-07T04:01:05.713Z,7.32
2023-01-07T04:01:39.595Z,7.34
2023-01-07T04:02:13.423Z,7.37
2023-01-07T04:02:48.676Z,7.35
2023-01-07T04:03:27.929Z,7.32
2023-01-07T04:04:03.315Z,7.28
2023-01-07T04:04:37.400Z,7.31
2023-01-07T04:05:11.485Z,7.33
2023-01-07T04:05:44.852Z,7.32
2023-01-07T04:06:19.162Z,7.30
2023-01-07T04:06:53.543Z,7.31
2023-01-07T04:07:27.126Z,7.30
2023-01-07T04:08:00.517Z,7.31
2023-01-07T04:08:37.413Z,7.32
2023-01-07T04:09:12.187Z,7.32
2023-01-07T04:09:47.530Z,7.33
2023-01-07T04:10:21.876Z,7.33
2023-01-07T04:10:55.278Z,7.33
2023-01-07T04:11:28.730Z,7.33
2023-01-07T04:12:04.729Z,7.34
2023-01-07T04:12:40.764Z,7.33
2023-01-07T04:13:14.317Z,7.34
2023-01-07T04:13:49.815Z,7.33
2023-01-07T04:14:23.709Z,7.34
2023-01-07T04:14:59.163Z,7.36
2023-01-07T04:15:33.129Z,7.37
2023-01-07T04:16:07.149Z,7.38
2023-01-07T04:16:40.621Z,7.36
2023-01-07T04:17:14.201Z,7.34
2023-01-07T04:17:48.008Z,7.34
2023-01-07T04:18:21.594Z,7.34
2023-01-07T04:18:54.985Z,7.34
2023-01-07T04:19:28.532Z,7.34
2023-01-07T04:20:02.963Z,7.36
2023-01-07T04:20:37.094Z,7.36
2023-01-07T04:21:10.942Z,7.34
2023-01-07T04:21:44.547Z,7.34
2023-01-07T04:22:17.959Z,7.35
2023-01-07T04:22:51.341Z,7.36
2023-01-07T04:23:24.702Z,7.35
2023-01-07T04:23:58.937Z,7.35
2023-01-07T04:24:32.820Z,7.38
2023-01-07T04:25:06.847Z,7.41
2023-01-07T04:25:41.386Z,7.35
2023-01-07T04:26:15.363Z,7.35
2023-01-07T04:26:49.115Z,7.33
2023-01-07T04:27:22.491Z,7.33
2023-01-07T04:27:55.983Z,7.33
2023-01-07T04:28:29.982Z,7.33
2023-01-07T04:29:03.794Z,7.33
2023-01-07T04:29:37.459Z,7.33
2023-01-07T04:30:11.502Z,7.33
2023-01-07T04:30:45.247Z,7.33
2023-01-07T04:31:18.839Z,7.32
2023-01-07T04:31:52.447Z,7.33
2023-01-07T04:32:26.035Z,7.34
2023-01-07T04:33:00.035Z,7.33
2023-01-07T04:33:33.515Z,7.32
2023-01-07T04:34:07.134Z,7.33
2023-01-07T04:34:40.878Z,7.36
2023-01-07T04:35:14.211Z,7.36
2023-01-07T04:35:48.280Z,7.35
2023-01-07T04:36:22.158Z,7.38
2023-01-07T04:36:55.647Z,7.32
2023-01-07T04:37:29.390Z,7.30
2023-01-07T04:38:02.962Z,7.29
2023-01-07T04:38:36.368Z,7.31
2023-01-07T04:39:11.066Z,7.34
2023-01-07T04:39:44.523Z,7.37
2023-01-07T04:40:18.601Z,7.38
2023-01-07T04:40:52.114Z,7.37
2023-01-07T04:41:25.454Z,7.37
2023-01-07T04:41:58.937Z,7.38
2023-01-07T04:42:32.651Z,7.38
2023-01-07T04:43:06.545Z,7.36
2023-01-07T04:43:39.966Z,7.34
2023-01-07T04:44:15.537Z,7.33
2023-01-07T04:44:48.966Z,7.34
2023-01-07T04:45:22.780Z,7.34
2023-01-07T04:45:56.732Z,7.34
2023-01-07T04:46:30.957Z,7.35
2023-01-07T04:47:04.504Z,7.36
2023-01-07T04:47:38.005Z,7.37
2023-01-07T04:48:12.139Z,7.37
2023-01-07T04:48:45.651Z,7.39
2023-01-07T04:49:19.176Z,7.39
2023-01-07T04:49:52.864Z,7.41
2023-01-07T04:50:27.486Z,7.41
2023-01-07T04:51:01.119Z,7.41
2023-01-07T04:51:34.577Z,7.42
2023-01-07T04:52:09.166Z,7.43
2023-01-07T04:52:43.223Z,7.44
2023-01-07T04:53:16.806Z,7.44
2023-01-07T04:53:50.288Z,7.44
2023-01-07T04:54:24.060Z,7.43
2023-01-07T04:54:58.049Z,7.44
2023-01-07T04:55:31.503Z,7.44
2023-01-07T04:56:06.488Z,7.45
2023-01-07T04:56:40.084Z,7.44
2023-01-07T04:57:13.607Z,7.45
2023-01-07T04:57:47.853Z,7.46
2023-01-07T04:58:21.683Z,7.46
2023-01-07T04:58:55.208Z,7.47
2023-01-07T04:59:28.764Z,7.47
2023-01-07T05:00:02.243Z,7.48
2023-01-07T05:00:37.198Z,7.48
2023-01-07T05:01:11.749Z,7.48
2023-01-07T05:01:45.685Z,7.48
2023-01-07T05:02:19.547Z,7.48
2023-01-07T05:02:53.061Z,7.49
2023-01-07T05:03:26.702Z,7.49
2023-01-07T05:04:00.285Z,7.50
2023-01-07T05:04:34.259Z,7.52
2023-01-07T05:05:08.169Z,7.53
2023-01-07T05:05:42.038Z,7.54
2023-01-07T05:06:15.670Z,7.54
2023-01-07T05:06:49.106Z,7.56
2023-01-07T05:07:22.503Z,7.57
2023-01-07T05:07:55.954Z,7.55
2023-01-07T05:08:29.825Z,7.54
2023-01-07T05:09:03.854Z,7.52
2023-01-07T05:09:38.456Z,7.51
2023-01-07T05:10:12.765Z,7.48
2023-01-07T05:10:48.859Z,7.48
2023-01-07T05:11:22.951Z,7.47
2023-01-07T05:11:58.333Z,7.46
2023-01-07T05:12:35.798Z,7.46
2023-01-07T05:13:15.592Z,7.45
2023-01-07T05:13:50.368Z,7.43
2023-01-07T05:14:24.200Z,7.43
2023-01-07T05:14:58.983Z,7.39
2023-01-07T05:15:32.851Z,7.43
2023-01-07T05:16:06.656Z,7.42
2023-01-07T05:16:40.241Z,7.42
2023-01-07T05:17:15.331Z,7.42
2023-01-07T05:17:49.480Z,7.42
2023-01-07T05:18:23.429Z,7.42
2023-01-07T05:18:57.460Z,7.42
2023-01-07T05:19:31.171Z,7.42
2023-01-07T05:20:05.823Z,7.43
2023-01-07T05:20:39.595Z,7.43
2023-01-07T05:21:13.420Z,7.46
2023-01-07T05:21:46.837Z,7.46
2023-01-07T05:22:20.489Z,7.43
2023-01-07T05:22:55.442Z,7.40
2023-01-07T05:23:29.305Z,7.39
2023-01-07T05:24:04.413Z,7.39
2023-01-07T05:24:38.069Z,7.39
2023-01-07T05:25:11.524Z,7.38
2023-01-07T05:25:45.261Z,7.39
2023-01-07T05:26:20.053Z,7.38
2023-01-07T05:26:55.804Z,7.38
2023-01-07T05:27:29.487Z,7.38
2023-01-07T05:28:03.099Z,7.38
2023-01-07T05:28:37.288Z,7.39
2023-01-07T05:29:10.998Z,7.39
2023-01-07T05:29:44.897Z,7.40
2023-01-07T05:30:18.444Z,7.41
2023-01-07T05:30:52.041Z,7.41
2023-01-07T05:31:25.616Z,7.41
2023-01-07T05:31:59.064Z,7.41
2023-01-07T05:32:32.660Z,7.40
2023-01-07T05:33:07.594Z,7.41
2023-01-07T05:33:41.328Z,7.43
2023-01-07T05:34:15.027Z,7.42
2023-01-07T05:34:49.201Z,7.42
2023-01-07T05:35:22.835Z,7.42
2023-01-07T05:35:56.304Z,7.43
2023-01-07T05:36:29.667Z,7.43
2023-01-07T05:37:03.813Z,7.43
2023-01-07T05:37:37.486Z,7.43
2023-01-07T05:38:11.817Z,7.42
2023-01-07T05:38:45.279Z,7.44
2023-01-07T05:39:18.889Z,7.44
2023-01-07T05:39:52.708Z,7.49
2023-01-07T05:40:26.217Z,7.59
2023-01-07T05:40:59.491Z,7.71
2023-01-07T05:41:33.318Z,7.66
2023-01-07T05:42:06.883Z,7.60
2023-01-07T05:42:40.242Z,7.56
2023-01-07T05:43:13.682Z,7.54
2023-01-07T05:43:47.051Z,7.52
2023-01-07T05:44:20.616Z,7.47
2023-01-07T05:44:53.905Z,7.42
2023-01-07T05:45:27.279Z,7.43
2023-01-07T05:46:00.999Z,7.45
2023-01-07T05:46:34.358Z,7.44
2023-01-07T05:47:07.750Z,7.46
2023-01-07T05:47:41.017Z,7.45
2023-01-07T05:48:15.308Z,7.43
2023-01-07T05:48:48.797Z,7.41
2023-01-07T05:49:22.263Z,7.44
2023-01-07T05:49:55.646Z,7.46
2023-01-07T05:50:29.078Z,7.45
2023-01-07T05:51:03.058Z,7.40
2023-01-07T05:51:36.490Z,7.34
2023-01-07T05:52:09.833Z,7.32
2023-01-07T05:52:43.754Z,7.31
2023-01-07T05:53:17.165Z,7.31
2023-01-07T05:53:50.584Z,7.31
2023-01-07T05:54:24.144Z,7.32
2023-01-07T05:54:57.662Z,7.33
2023-01-07T05:55:31.180Z,7.34
2023-01-07T05:56:04.896Z,7.35
2023-01-07T05:56:38.415Z,7.35
2023-01-07T05:57:11.875Z,7.36
2023-01-07T05:57:45.254Z,7.35
2023-01-07T05:58:18.699Z,7.35
2023-01-07T05:58:52.177Z,7.35
2023-01-07T05:59:25.571Z,7.36
2023-01-07T05:59:59.184Z,7.37
2023-01-07T06:00:33.215Z,7.38
2023-01-07T06:01:06.706Z,7.37
2023-01-07T06:01:40.240Z,7.39
2023-01-07T06:02:13.771Z,7.40
2023-01-07T06:02:47.209Z,7.42
2023-01-07T06:03:21.588Z,7.44
2023-01-07T06:03:55.253Z,7.44
2023-01-07T06:04:28.995Z,7.45
2023-01-07T06:05:02.539Z,7.45
2023-01-07T06:05:35.967Z,7.46
2023-01-07T06:06:09.382Z,7.45
2023-01-07T06:06:42.910Z,7.46
2023-01-07T06:07:16.300Z,7.45
2023-01-07T06:07:49.760Z,7.44
2023-01-07T06:08:23.195Z,7.45
2023-01-07T06:08:56.613Z,7.45
2023-01-07T06:09:30.152Z,7.45
2023-01-07T06:10:04.511Z,7.44
2023-01-07T06:10:37.985Z,7.45
2023-01-07T06:11:11.461Z,7.43
2023-01-07T06:11:45.082Z,7.43
2023-01-07T06:12:18.578Z,7.41
2023-01-07T06:12:51.953Z,7.40
2023-01-07T06:13:25.563Z,7.39
2023-01-07T06:13:58.973Z,7.39
2023-01-07T06:14:32.448Z,7.39
2023-01-07T06:15:07.547Z,7.38
2023-01-07T06:15:40.992Z,7.38
2023-01-07T06:16:15.127Z,7.35
2023-01-07T06:16:48.656Z,7.39
2023-01-07T06:17:22.715Z,7.38
2023-01-07T06:17:56.234Z,7.37
2023-01-07T06:18:29.857Z,7.36
2023-01-07T06:19:03.814Z,7.35
2023-01-07T06:19:38.029Z,7.34
2023-01-07T06:20:12.036Z,7.36
2023-01-07T06:20:45.922Z,7.35
2023-01-07T06:21:21.888Z,7.35
2023-01-07T06:21:55.742Z,7.35
2023-01-07T06:22:29.173Z,7.35
2023-01-07T06:23:04.627Z,7.36
2023-01-07T06:23:38.234Z,7.36
2023-01-07T06:24:11.814Z,7.36
2023-01-07T06:24:45.217Z,7.36
2023-01-07T06:25:18.837Z,7.37
2023-01-07T06:25:52.355Z,7.38
2023-01-07T06:26:26.018Z,7.36
2023-01-07T06:26:59.377Z,7.36
2023-01-07T06:27:33.570Z,7.37
2023-01-07T06:28:07.111Z,7.37
2023-01-07T06:28:40.682Z,7.37
2023-01-07T06:29:14.183Z,7.39
2023-01-07T06:29:47.660Z,7.38
2023-01-07T06:30:21.282Z,7.39
2023-01-07T06:30:54.731Z,7.38
2023-01-07T06:31:28.227Z,7.38
2023-01-07T06:32:01.696Z,7.37
2023-01-07T06:32:43.221Z,7.37
2023-01-07T06:33:17.655Z,7.37
2023-01-07T06:33:51.061Z,7.36
2023-01-07T06:34:24.568Z,7.36
2023-01-07T06:34:57.997Z,7.36
2023-01-07T06:35:32.846Z,7.36
2023-01-07T06:36:08.221Z,7.36
2023-01-07T06:36:41.700Z,7.36
2023-01-07T06:37:15.419Z,7.36
2023-01-07T06:37:49.133Z,7.36
2023-01-07T06:38:22.549Z,7.37
2023-01-07T06:38:55.984Z,7.37
2023-01-07T06:39:29.898Z,7.37
2023-01-07T06:40:03.866Z,7.37
2023-01-07T06:40:37.896Z,7.37
2023-01-07T06:41:11.400Z,7.37
2023-01-07T06:41:44.843Z,7.37
2023-01-07T06:42:18.267Z,7.37
2023-01-07T06:42:51.686Z,7.37
2023-01-07T06:43:26.117Z,7.37
2023-01-07T06:43:59.581Z,7.37
2023-01-07T06:44:33.108Z,7.37
2023-01-07T06:45:07.083Z,7.38
2023-01-07T06:45:41.639Z,7.38
2023-01-07T06:46:15.241Z,7.39
2023-01-07T06:46:48.886Z,7.38
2023-01-07T06:47:22.356Z,7.38
2023-01-07T06:47:57.564Z,7.38
2023-01-07T06:48:31.402Z,7.37
2023-01-07T06:49:04.955Z,7.38
2023-01-07T06:49:38.350Z,7.38
2023-01-07T06:50:12.294Z,7.39
2023-01-07T06:50:46.031Z,7.38
2023-01-07T06:51:19.872Z,7.38
2023-01-07T06:51:53.331Z,7.38
2023-01-07T06:52:26.706Z,7.38
2023-01-07T06:53:00.051Z,7.38
2023-01-07T06:53:33.738Z,7.37
2023-01-07T06:54:07.275Z,7.36
2023-01-07T06:54:40.748Z,7.36
2023-01-07T06:55:14.092Z,7.35
2023-01-07T06:55:51.680Z,7.35
2023-01-07T06:56:25.099Z,7.34
2023-01-07T06:56:58.736Z,7.35
2023-01-07T06:57:32.837Z,7.34
2023-01-07T06:58:06.295Z,7.34
2023-01-07T06:58:39.754Z,7.36
2023-01-07T06:59:13.281Z,7.35
2023-01-07T06:59:46.716Z,7.37
2023-01-07T07:00:20.366Z,7.38
2023-01-07T07:00:53.879Z,7.38
2023-01-07T07:01:27.453Z,7.36
2023-01-07T07:02:00.983Z,7.35
2023-01-07T07:02:34.640Z,7.33
2023-01-07T07:03:08.540Z,7.27
2023-01-07T07:03:42.223Z,7.34
2023-01-07T07:04:15.729Z,7.33
2023-01-07T07:04:49.117Z,7.30
2023-01-07T07:05:22.688Z,7.28
2023-01-07T07:05:56.101Z,7.27
2023-01-07T07:06:29.669Z,7.25
2023-01-07T07:07:03.182Z,7.24
2023-01-07T07:07:36.635Z,7.22
2023-01-07T07:08:10.163Z,7.22
2023-01-07T07:08:43.718Z,7.23
2023-01-07T07:09:17.089Z,7.23
2023-01-07T07:09:50.889Z,7.23
2023-01-07T07:10:25.439Z,7.22
2023-01-07T07:10:58.935Z,7.21
2023-01-07T07:11:32.625Z,7.21
2023-01-07T07:12:06.349Z,7.22
2023-01-07T07:12:40.554Z,7.22
2023-01-07T07:13:14.050Z,7.23
2023-01-07T07:13:47.565Z,7.23
2023-01-07T07:14:21.096Z,7.24
2023-01-07T07:14:54.537Z,7.24
2023-01-07T07:15:28.005Z,7.24
2023-01-07T07:16:01.570Z,7.25
2023-01-07T07:16:35.739Z,7.26
2023-01-07T07:17:09.248Z,7.26
2023-01-07T07:17:43.128Z,7.26
2023-01-07T07:18:18.349Z,7.27
2023-01-07T07:18:53.252Z,7.28
2023-01-07T07:19:26.802Z,7.28
2023-01-07T07:20:00.263Z,7.29
2023-01-07T07:20:33.775Z,7.30
2023-01-07T07:21:07.180Z,7.31
2023-01-07T07:21:40.554Z,7.32
2023-01-07T07:22:14.012Z,7.31
2023-01-07T07:22:49.356Z,7.33
2023-01-07T07:23:22.765Z,7.34
2023-01-07T07:23:56.225Z,7.34
2023-01-07T07:24:29.594Z,7.35
2023-01-07T07:25:03.047Z,7.37
2023-01-07T07:25:36.518Z,7.36
2023-01-07T07:26:10.442Z,7.34
2023-01-07T07:26:43.859Z,7.35
2023-01-07T07:27:17.320Z,7.35
2023-01-07T07:27:50.935Z,7.36
2023-01-07T07:28:24.357Z,7.36
2023-01-07T07:28:57.772Z,7.36
2023-01-07T07:29:31.175Z,7.37
2023-01-07T07:30:05.406Z,7.36
2023-01-07T07:30:45.694Z,7.36
2023-01-07T07:31:21.446Z,7.36
2023-01-07T07:31:54.822Z,7.40
2023-01-07T07:32:28.619Z,7.41
2023-01-07T07:33:04.086Z,7.43
2023-01-07T07:33:37.880Z,7.43
2023-01-07T07:34:11.762Z,7.44
2023-01-07T07:34:45.130Z,7.41
2023-01-07T07:35:18.641Z,7.37
2023-01-07T07:35:52.193Z,7.34
2023-01-07T07:36:25.723Z,7.33
2023-01-07T07:36:59.198Z,7.33
2023-01-07T07:37:32.821Z,7.32
2023-01-07T07:38:06.337Z,7.32
2023-01-07T07:38:39.791Z,7.31
2023-01-07T07:39:13.976Z,7.31
2023-01-07T07:39:47.426Z,7.31
2023-01-07T07:40:21.757Z,7.31
2023-01-07T07:40:55.143Z,7.32
2023-01-07T07:41:30.061Z,7.30
2023-01-07T07:42:06.125Z,7.29
2023-01-07T07:43:10.637Z,7.29
2023-01-07T07:43:36.032Z,7.24
2023-01-07T07:44:09.853Z,7.25
2023-01-07T07:44:43.409Z,7.25
2023-01-07T07:45:16.796Z,7.23
2023-01-07T07:45:50.364Z,7.27
2023-01-07T07:46:23.771Z,7.27
2023-01-07T07:46:57.173Z,7.28
2023-01-07T07:47:30.533Z,7.28
2023-01-07T07:48:07.601Z,7.28
2023-01-07T07:48:41.250Z,7.26
2023-01-07T07:49:14.810Z,7.26
2023-01-07T07:49:48.252Z,7.27
2023-01-07T07:50:21.851Z,7.25
2023-01-07T07:50:55.329Z,7.25
2023-01-07T07:51:28.718Z,7.27
2023-01-07T07:52:02.409Z,7.26
2023-01-07T07:52:35.805Z,7.26
2023-01-07T07:53:10.630Z,7.27
2023-01-07T07:53:44.312Z,7.26
2023-01-07T07:54:18.174Z,7.28
2023-01-07T07:54:51.774Z,7.28
2023-01-07T07:55:26.347Z,7.28
2023-01-07T07:56:00.097Z,7.29
2023-01-07T07:56:33.686Z,7.30
2023-01-07T07:57:07.164Z,7.31
2023-01-07T07:57:40.505Z,7.33
2023-01-07T07:58:13.955Z,7.33
2023-01-07T07:58:47.416Z,7.35
2023-01-07T07:59:21.120Z,7.36
2023-01-07T07:59:54.588Z,7.38
2023-01-07T08:00:27.986Z,7.37
2023-01-07T08:01:01.456Z,7.37
2023-01-07T08:01:37.230Z,7.37
2023-01-07T08:02:14.404Z,7.37
2023-01-07T08:02:47.882Z,7.38
2023-01-07T08:03:21.604Z,7.38
2023-01-07T08:03:55.106Z,7.39